Time;durP1;ratioP1;P1;durP2;ratioP2;P2;SDS_P1;SDS_P2;PMS_P1;PMS_P2;Temp;Humidity;BMP_temperature;BMP_pressure;BME280_temperature;BME280_humidity;BME280_pressure;Samples;Min_cycle;Max_cycle;Signal;HPM_P1;HPM_P2
2022/08/09 00:02:10;;;;;;;5.95;2.90;;;14.90;99.90;;;;;;5064114;28;20406;-73
2022/08/09 00:04:36;;;;;;;5.95;3.00;;;14.90;99.90;;;;;;5091642;28;20067;-71
2022/08/09 00:07:03;;;;;;;4.13;2.80;;;14.90;99.90;;;;;;5059832;28;20755;-72
2022/08/09 00:09:29;;;;;;;3.33;2.65;;;14.90;99.90;;;;;;5076838;28;20032;-72
2022/08/09 00:11:54;;;;;;;8.45;2.95;;;14.90;99.90;;;;;;5075313;28;20380;-73
2022/08/09 00:14:20;;;;;;;4.38;2.88;;;14.80;99.90;;;;;;5077322;28;20443;-71
2022/08/09 00:16:47;;;;;;;6.07;3.05;;;14.80;99.90;;;;;;5076169;28;20044;-73
2022/08/09 00:19:13;;;;;;;6.13;2.58;;;14.80;99.90;;;;;;5078902;28;20436;-73
2022/08/09 00:21:39;;;;;;;6.13;3.47;;;14.80;99.90;;;;;;5076599;28;20048;-73
2022/08/09 00:24:05;;;;;;;6.45;3.03;;;14.80;99.90;;;;;;5081573;28;20076;-72
2022/08/09 00:26:31;;;;;;;3.95;2.80;;;14.70;99.90;;;;;;5081602;28;20588;-72
2022/08/09 00:28:58;;;;;;;4.30;2.70;;;14.70;99.90;;;;;;5076395;28;20040;-72
2022/08/09 00:31:24;;;;;;;4.53;2.70;;;14.70;99.90;;;;;;5078660;28;20067;-72
2022/08/09 00:33:52;;;;;;;4.65;3.08;;;14.60;99.90;;;;;;5079513;28;20734;-72
2022/08/09 00:36:19;;;;;;;5.43;2.63;;;14.60;99.90;;;;;;5071239;28;20045;-73
2022/08/09 00:38:45;;;;;;;6.18;3.15;;;14.50;99.90;;;;;;5075198;28;20488;-74
2022/08/09 00:41:12;;;;;;;6.28;3.60;;;14.50;99.90;;;;;;5074855;28;20054;-75
2022/08/09 00:43:39;;;;;;;10.38;4.22;;;14.50;99.90;;;;;;5077350;28;20059;-75
2022/08/09 00:46:07;;;;;;;9.60;5.10;;;14.50;99.90;;;;;;5081310;28;20036;-75
2022/08/09 00:48:33;;;;;;;8.73;5.43;;;14.50;99.90;;;;;;5079440;28;20044;-74
2022/08/09 00:51:06;;;;;;;9.63;5.70;;;14.50;99.90;;;;;;5079450;28;20043;-74
2022/08/09 00:53:34;;;;;;;11.45;6.13;;;14.50;99.90;;;;;;5079627;28;22057;-75
2022/08/09 00:56:00;;;;;;;10.98;6.03;;;14.50;99.90;;;;;;5071558;28;21289;-73
2022/08/09 00:58:30;;;;;;;9.68;6.18;;;14.60;99.90;;;;;;5079875;28;20335;-75
2022/08/09 01:00:56;;;;;;;8.20;6.00;;;14.50;99.90;;;;;;5081918;28;20051;-75
2022/08/09 01:03:43;;;;;;;11.32;5.60;;;14.50;99.90;;;;;;5077952;28;20045;-75
2022/08/09 01:06:16;;;;;;;8.82;5.30;;;14.50;99.90;;;;;;5065731;28;20066;-74
2022/08/09 01:08:57;;;;;;;10.65;5.65;;;14.50;99.90;;;;;;5081493;28;20132;-76
2022/08/09 01:11:32;;;;;;;6.32;4.90;;;14.40;99.90;;;;;;5077974;28;22098;-75
2022/08/09 01:14:08;;;;;;;7.68;4.80;;;14.30;99.90;;;;;;5079146;28;20044;-76
2022/08/09 01:16:43;;;;;;;6.95;5.50;;;14.30;99.90;;;;;;5084591;28;20128;-75
2022/08/09 01:19:18;;;;;;;6.70;5.35;;;14.30;99.90;;;;;;5081069;28;20715;-74
2022/08/09 01:21:57;;;;;;;7.85;5.32;;;14.30;99.90;;;;;;5085161;28;20122;-74
2022/08/09 01:24:41;;;;;;;7.88;5.40;;;14.20;99.90;;;;;;5084843;28;20040;-71
2022/08/09 01:27:10;;;;;;;7.18;4.78;;;14.20;99.90;;;;;;5088734;28;20043;-73
2022/08/09 01:30:09;;;;;;;6.40;5.13;;;14.10;99.90;;;;;;5062629;28;20386;-75
2022/08/09 01:32:38;;;;;;;10.88;6.00;;;14.10;99.90;;;;;;5000324;28;20057;-74
2022/08/09 01:35:10;;;;;;;5.68;4.97;;;14.30;99.90;;;;;;4988687;28;20755;-75
2022/08/09 01:37:38;;;;;;;8.45;5.82;;;14.20;99.90;;;;;;5001565;28;20135;-75
2022/08/09 01:40:06;;;;;;;6.95;5.30;;;14.20;99.90;;;;;;4999710;28;20511;-76
2022/08/09 01:42:35;;;;;;;5.63;4.63;;;14.10;99.90;;;;;;5003494;28;20065;-75
2022/08/09 01:45:02;;;;;;;9.25;4.53;;;14.10;99.90;;;;;;5006437;28;20040;-76
2022/08/09 01:47:30;;;;;;;5.13;4.50;;;14.00;99.90;;;;;;4988813;28;21010;-75
2022/08/09 01:49:57;;;;;;;5.97;4.13;;;14.00;99.90;;;;;;5023995;28;20057;-76
2022/08/09 01:52:24;;;;;;;5.18;4.13;;;14.00;99.90;;;;;;4989949;28;20439;-75
2022/08/09 01:54:55;;;;;;;5.00;4.00;;;13.90;99.90;;;;;;5006641;28;20095;-76
2022/08/09 01:57:27;;;;;;;6.95;4.43;;;13.90;99.90;;;;;;5008831;28;20481;-75
2022/08/09 01:59:57;;;;;;;6.93;4.07;;;13.80;99.90;;;;;;5006949;28;20289;-75
2022/08/09 02:02:45;;;;;;;9.02;4.22;;;13.80;99.90;;;;;;5007060;28;20049;-75
2022/08/09 02:05:12;;;;;;;5.72;4.30;;;13.70;99.90;;;;;;5013399;28;20477;-75
2022/08/09 02:07:47;;;;;;;6.13;4.30;;;13.70;99.90;;;;;;5027655;28;20407;-75
2022/08/09 02:10:32;;;;;;;6.53;4.13;;;13.70;99.90;;;;;;5082453;28;20123;-75
2022/08/09 02:13:11;;;;;;;5.75;4.15;;;13.70;99.90;;;;;;5046715;28;20053;-75
2022/08/09 02:15:40;;;;;;;4.93;4.30;;;13.70;99.90;;;;;;5032030;28;20083;-76
2022/08/09 02:18:07;;;;;;;6.28;4.05;;;13.50;99.90;;;;;;5024084;28;20099;-75
2022/08/09 02:20:37;;;;;;;6.22;4.43;;;13.60;99.90;;;;;;5031876;28;20052;-75
2022/08/09 02:23:18;;;;;;;11.02;5.93;;;13.60;99.90;;;;;;5026984;28;20140;-75
2022/08/09 02:25:47;;;;;;;10.18;5.63;;;13.60;99.90;;;;;;5026408;28;20056;-75
2022/08/09 02:28:34;;;;;;;6.75;4.88;;;13.70;99.90;;;;;;5030624;28;20095;-75
2022/08/09 02:31:37;;;;;;;9.80;6.40;;;13.70;99.90;;;;;;5044602;28;20124;-74
2022/08/09 02:34:11;;;;;;;9.23;5.40;;;13.80;99.90;;;;;;5006317;28;20041;-75
2022/08/09 02:36:41;;;;;;;6.32;4.38;;;13.70;99.90;;;;;;4991590;28;20460;-76
2022/08/09 02:39:10;;;;;;;7.03;4.78;;;13.70;99.90;;;;;;4989310;28;20053;-75
2022/08/09 02:41:52;;;;;;;8.40;5.90;;;13.70;99.90;;;;;;5001581;28;20503;-74
2022/08/09 02:44:26;;;;;;;9.77;6.05;;;13.70;99.90;;;;;;5006259;28;20420;-74
2022/08/09 02:46:54;;;;;;;6.78;4.82;;;13.70;99.90;;;;;;5010743;28;20602;-75
2022/08/09 02:49:20;;;;;;;6.85;4.45;;;13.70;99.90;;;;;;5012706;28;20053;-74
2022/08/09 02:51:54;;;;;;;5.13;4.30;;;13.60;99.90;;;;;;5025426;28;20417;-73
2022/08/09 02:54:22;;;;;;;5.20;4.07;;;13.60;99.90;;;;;;5006241;28;20049;-75
2022/08/09 02:56:50;;;;;;;7.57;4.80;;;13.60;99.90;;;;;;5007711;28;20093;-76
2022/08/09 02:59:18;;;;;;;5.43;4.30;;;13.50;99.90;;;;;;5018726;28;20037;-75
2022/08/09 03:01:45;;;;;;;7.57;4.60;;;13.50;99.90;;;;;;5002654;28;20088;-75
2022/08/09 03:04:12;;;;;;;6.35;4.70;;;13.50;99.90;;;;;;5006288;28;20069;-75
2022/08/09 03:06:42;;;;;;;8.30;5.18;;;13.40;99.90;;;;;;5002927;28;20037;-74
2022/08/09 03:09:11;;;;;;;5.50;4.75;;;13.50;99.90;;;;;;5043206;28;20076;-76
2022/08/09 03:11:37;;;;;;;7.43;3.72;;;13.40;99.90;;;;;;5066186;28;20433;-75
2022/08/09 03:14:04;;;;;;;5.35;4.00;;;13.40;99.90;;;;;;5082337;28;20044;-76
2022/08/09 03:16:31;;;;;;;6.20;4.03;;;13.30;99.90;;;;;;5081060;28;20052;-76
2022/08/09 03:18:58;;;;;;;5.38;4.10;;;13.30;99.90;;;;;;5067790;28;20494;-75
2022/08/09 03:21:25;;;;;;;5.40;4.10;;;13.30;99.90;;;;;;5068020;28;20043;-75
2022/08/09 03:23:51;;;;;;;5.35;4.00;;;13.30;99.90;;;;;;5063662;28;20098;-76
2022/08/09 03:26:19;;;;;;;6.43;4.10;;;13.40;99.90;;;;;;5065992;28;20039;-75
2022/08/09 03:28:47;;;;;;;7.53;4.18;;;13.40;99.90;;;;;;5085466;28;20181;-76
2022/08/09 03:31:14;;;;;;;4.40;3.55;;;13.30;99.90;;;;;;5085189;28;20028;-75
2022/08/09 03:33:41;;;;;;;5.13;3.70;;;13.40;99.90;;;;;;5083235;28;20048;-75
2022/08/09 03:36:07;;;;;;;6.18;3.70;;;13.40;99.90;;;;;;5069656;28;20044;-76
2022/08/09 03:38:37;;;;;;;5.30;3.33;;;13.40;99.90;;;;;;5066747;28;20039;-76
2022/08/09 03:41:03;;;;;;;5.57;3.35;;;13.40;99.90;;;;;;5066915;28;20086;-75
2022/08/09 03:43:28;;;;;;;6.10;3.30;;;13.40;99.90;;;;;;5069193;28;20129;-75
2022/08/09 03:45:54;;;;;;;4.20;3.17;;;13.30;99.90;;;;;;5085229;28;20158;-75
2022/08/09 03:48:23;;;;;;;5.30;3.17;;;13.40;99.90;;;;;;5083410;28;20044;-76
2022/08/09 03:50:51;;;;;;;9.38;3.80;;;13.30;99.90;;;;;;5065258;28;20039;-76
2022/08/09 03:53:19;;;;;;;3.50;3.17;;;13.40;99.90;;;;;;5086595;28;20056;-75
2022/08/09 03:55:46;;;;;;;6.88;3.15;;;13.30;99.90;;;;;;5085838;28;20493;-75
2022/08/09 03:58:15;;;;;;;8.88;3.47;;;13.30;99.90;;;;;;5080476;28;20060;-75
2022/08/09 04:00:43;;;;;;;5.03;3.42;;;13.40;99.90;;;;;;5064240;28;20066;-76
2022/08/09 04:03:18;;;;;;;4.78;3.10;;;13.30;99.90;;;;;;5085221;28;20040;-76
2022/08/09 04:05:44;;;;;;;5.95;3.40;;;13.30;99.90;;;;;;5068303;28;20036;-76
2022/08/09 04:08:09;;;;;;;6.25;3.40;;;13.40;99.90;;;;;;5087021;28;20031;-76
2022/08/09 04:10:35;;;;;;;5.55;3.03;;;13.30;99.90;;;;;;5066977;28;20472;-75
2022/08/09 04:13:08;;;;;;;4.53;3.03;;;13.40;99.90;;;;;;5085771;28;20050;-73
2022/08/09 04:15:34;;;;;;;4.63;3.00;;;13.30;99.90;;;;;;5071552;28;20048;-74
2022/08/09 04:17:59;;;;;;;4.10;3.58;;;13.20;99.90;;;;;;5067098;28;20512;-75
2022/08/09 04:20:25;;;;;;;7.03;3.47;;;13.30;99.90;;;;;;5084286;28;20126;-75
2022/08/09 04:22:50;;;;;;;5.95;3.55;;;13.30;99.90;;;;;;5086592;28;20087;-76
2022/08/09 04:25:16;;;;;;;5.53;3.80;;;13.20;99.90;;;;;;5084661;28;20036;-75
2022/08/09 04:27:42;;;;;;;6.15;3.63;;;13.30;99.90;;;;;;5081144;28;20109;-75
2022/08/09 04:30:10;;;;;;;6.60;3.50;;;13.30;99.90;;;;;;5072240;28;20044;-75
2022/08/09 04:32:36;;;;;;;9.15;4.13;;;13.30;99.90;;;;;;5080595;28;20036;-74
2022/08/09 04:35:05;;;;;;;6.50;3.83;;;13.30;99.90;;;;;;5058291;28;20043;-76
2022/08/09 04:37:30;;;;;;;4.50;3.35;;;13.30;99.90;;;;;;5079357;28;20044;-74
2022/08/09 04:39:56;;;;;;;5.43;3.45;;;13.30;99.90;;;;;;5083023;28;20583;-75
2022/08/09 04:42:22;;;;;;;8.07;3.83;;;13.30;99.90;;;;;;5079184;28;20048;-76
2022/08/09 04:44:48;;;;;;;5.57;3.50;;;13.40;99.90;;;;;;5065069;28;20053;-76
2022/08/09 04:47:13;;;;;;;4.65;3.25;;;13.40;99.90;;;;;;5065742;28;20032;-76
2022/08/09 04:49:39;;;;;;;6.50;3.25;;;13.40;99.90;;;;;;5078845;28;20130;-74
2022/08/09 04:52:05;;;;;;;4.53;3.40;;;13.40;99.90;;;;;;5080448;28;20036;-75
2022/08/09 04:54:31;;;;;;;4.32;3.15;;;13.50;99.90;;;;;;5081890;28;20149;-74
2022/08/09 04:56:58;;;;;;;5.05;3.08;;;13.50;99.90;;;;;;5062134;28;20039;-76
2022/08/09 04:59:23;;;;;;;3.65;3.00;;;13.60;99.90;;;;;;5065086;28;20118;-75
2022/08/09 05:01:49;;;;;;;4.45;2.92;;;13.60;99.90;;;;;;5082350;28;20139;-76
2022/08/09 05:04:15;;;;;;;3.92;3.03;;;13.70;99.90;;;;;;5065767;28;20127;-76
2022/08/09 05:06:41;;;;;;;3.55;3.22;;;13.70;99.90;;;;;;5064086;28;20054;-75
2022/08/09 05:09:07;;;;;;;6.00;3.33;;;13.80;99.90;;;;;;5081240;28;20024;-76
2022/08/09 05:11:33;;;;;;;4.28;3.22;;;13.80;99.90;;;;;;5079813;28;20048;-75
2022/08/09 05:13:59;;;;;;;5.75;3.03;;;13.90;99.90;;;;;;5065836;28;20040;-74
2022/08/09 05:16:24;;;;;;;3.08;2.78;;;14.00;99.90;;;;;;5078059;28;20039;-75
2022/08/09 05:18:50;;;;;;;6.90;3.00;;;14.00;99.90;;;;;;5060796;28;20048;-75
2022/08/09 05:21:17;;;;;;;6.55;3.30;;;14.00;99.90;;;;;;5086134;28;20109;-75
2022/08/09 05:23:42;;;;;;;7.05;3.17;;;14.10;99.90;;;;;;5068114;28;20044;-76
2022/08/09 05:26:08;;;;;;;5.47;3.60;;;14.10;99.90;;;;;;5068982;28;20039;-75
2022/08/09 05:28:34;;;;;;;6.10;3.83;;;14.30;99.90;;;;;;5081526;28;20028;-75
2022/08/09 05:30:59;;;;;;;8.02;3.58;;;14.40;99.90;;;;;;5065753;28;20043;-75
2022/08/09 05:33:25;;;;;;;5.18;3.58;;;14.40;99.90;;;;;;5084182;28;20055;-75
2022/08/09 05:35:51;;;;;;;5.93;3.65;;;14.50;99.90;;;;;;5088349;28;20043;-76
2022/08/09 05:38:16;;;;;;;7.15;3.83;;;14.60;99.90;;;;;;5089891;28;20036;-75
2022/08/09 05:40:42;;;;;;;6.93;3.75;;;14.60;99.90;;;;;;5067978;28;20120;-73
2022/08/09 05:43:10;;;;;;;8.27;4.10;;;14.80;99.90;;;;;;5070472;28;20044;-73
2022/08/09 05:45:36;;;;;;;5.60;4.22;;;14.80;99.90;;;;;;5065347;28;20036;-74
2022/08/09 05:48:02;;;;;;;8.73;4.10;;;14.90;99.90;;;;;;5084165;28;20120;-72
2022/08/09 05:50:28;;;;;;;6.22;4.32;;;15.00;99.90;;;;;;5068939;28;20071;-74
2022/08/09 05:52:54;;;;;;;7.78;4.68;;;15.20;99.90;;;;;;5085281;28;20052;-74
2022/08/09 05:55:19;;;;;;;6.90;3.78;;;15.20;99.90;;;;;;5088000;28;20057;-74
2022/08/09 05:57:45;;;;;;;11.18;4.85;;;15.30;99.90;;;;;;5066401;28;20085;-75
2022/08/09 06:00:14;;;;;;;12.30;4.80;;;15.40;99.90;;;;;;5081416;28;20056;-75
2022/08/09 06:02:40;;;;;;;8.38;5.32;;;15.60;99.90;;;;;;5078666;28;20036;-75
2022/08/09 06:05:06;;;;;;;8.80;5.13;;;15.60;99.90;;;;;;5066088;28;20472;-75
2022/08/09 06:07:34;;;;;;;11.32;5.70;;;15.80;99.90;;;;;;5078991;28;20046;-75
2022/08/09 06:10:00;;;;;;;8.50;5.35;;;15.90;99.90;;;;;;5082904;28;20433;-76
2022/08/09 06:12:25;;;;;;;12.77;5.40;;;16.00;99.90;;;;;;5083113;28;20060;-75
2022/08/09 06:14:51;;;;;;;10.07;5.30;;;16.10;99.90;;;;;;5070480;28;20052;-75
2022/08/09 06:17:17;;;;;;;10.40;4.95;;;16.10;99.90;;;;;;5075313;28;20058;-75
2022/08/09 06:19:43;;;;;;;8.25;4.18;;;16.30;99.90;;;;;;5068315;28;20032;-76
2022/08/09 06:22:08;;;;;;;8.50;3.83;;;16.40;99.90;;;;;;5080009;28;20056;-73
2022/08/09 06:24:34;;;;;;;12.70;3.40;;;16.50;99.90;;;;;;5069282;28;20127;-74
2022/08/09 06:27:02;;;;;;;8.63;3.53;;;16.70;99.90;;;;;;5078837;28;20152;-74
2022/08/09 06:29:27;;;;;;;7.75;3.40;;;16.80;99.90;;;;;;5062808;28;20058;-75
2022/08/09 06:31:53;;;;;;;9.02;2.92;;;16.90;99.90;;;;;;5061301;28;20045;-76
2022/08/09 06:34:20;;;;;;;4.55;2.53;;;17.00;99.90;;;;;;5080100;28;20084;-76
2022/08/09 06:36:45;;;;;;;7.43;2.78;;;17.10;99.90;;;;;;5077285;28;20044;-76
2022/08/09 06:39:12;;;;;;;6.55;2.72;;;17.10;99.90;;;;;;5062708;28;20051;-73
2022/08/09 06:41:38;;;;;;;6.57;2.88;;;17.30;99.90;;;;;;5075925;28;20499;-75
2022/08/09 06:44:04;;;;;;;7.63;2.70;;;17.30;99.90;;;;;;5065263;28;20133;-75
2022/08/09 06:46:30;;;;;;;6.78;2.88;;;17.40;99.90;;;;;;5080642;28;20115;-74
2022/08/09 06:48:56;;;;;;;7.10;2.70;;;17.50;99.90;;;;;;5076855;28;20158;-74
2022/08/09 06:51:21;;;;;;;5.95;2.20;;;17.60;99.90;;;;;;5082085;28;20433;-76
2022/08/09 06:53:47;;;;;;;5.13;2.50;;;17.60;99.90;;;;;;5082147;28;20961;-73
2022/08/09 06:56:13;;;;;;;5.45;1.80;;;17.70;99.90;;;;;;5064887;28;20463;-74
2022/08/09 06:58:38;;;;;;;10.60;2.00;;;17.80;99.90;;;;;;5082511;28;20052;-76
2022/08/09 07:01:05;;;;;;;3.15;1.50;;;17.90;99.90;;;;;;5086608;28;20052;-75
2022/08/09 07:03:33;;;;;;;6.90;2.20;;;18.00;99.90;;;;;;5090758;28;20044;-74
2022/08/09 07:05:59;;;;;;;3.97;1.73;;;18.10;99.90;;;;;;5088061;28;20040;-74
2022/08/09 07:08:25;;;;;;;2.53;1.50;;;18.10;99.90;;;;;;5086757;28;20458;-75
2022/08/09 07:10:51;;;;;;;4.15;1.60;;;18.30;99.90;;;;;;5064165;28;20198;-74
2022/08/09 07:13:17;;;;;;;7.30;1.92;;;18.30;99.90;;;;;;5061762;28;20036;-75
2022/08/09 07:15:43;;;;;;;4.20;1.63;;;18.30;99.90;;;;;;5065270;28;20040;-75
2022/08/09 07:18:08;;;;;;;4.03;1.60;;;18.30;99.90;;;;;;5062769;28;20052;-75
2022/08/09 07:20:34;;;;;;;2.05;1.40;;;18.40;99.90;;;;;;5078691;28;20585;-73
2022/08/09 07:23:00;;;;;;;2.95;1.40;;;18.50;99.90;;;;;;5067112;28;20053;-75
2022/08/09 07:25:25;;;;;;;4.68;1.77;;;18.50;99.90;;;;;;5082677;28;20067;-75
2022/08/09 07:27:51;;;;;;;4.00;1.70;;;18.50;99.90;;;;;;5078205;28;20052;-75
2022/08/09 07:30:17;;;;;;;3.35;1.50;;;18.60;99.90;;;;;;5063137;28;20052;-74
2022/08/09 07:32:43;;;;;;;4.68;2.00;;;18.50;99.90;;;;;;5077156;28;20044;-74
2022/08/09 07:35:10;;;;;;;4.93;2.20;;;18.60;99.90;;;;;;5078686;28;20051;-74
2022/08/09 07:37:41;;;;;;;6.22;2.42;;;18.60;99.90;;;;;;5075124;28;20131;-74
2022/08/09 07:40:07;;;;;;;4.63;2.00;;;18.80;99.90;;;;;;5059024;28;20047;-75
2022/08/09 07:42:32;;;;;;;3.92;2.33;;;18.80;99.90;;;;;;5057100;28;20056;-73
2022/08/09 07:44:58;;;;;;;5.45;2.47;;;18.90;99.90;;;;;;5077392;28;20059;-74
2022/08/09 07:47:24;;;;;;;4.70;1.60;;;18.90;99.90;;;;;;5077470;28;20067;-73
2022/08/09 07:49:50;;;;;;;3.88;1.33;;;19.00;99.90;;;;;;5072688;28;20075;-74
2022/08/09 07:52:16;;;;;;;5.03;1.58;;;19.00;99.90;;;;;;5063497;28;20059;-74
2022/08/09 07:54:42;;;;;;;2.38;1.63;;;19.10;99.90;;;;;;5065659;28;20150;-73
2022/08/09 07:57:07;;;;;;;3.80;1.80;;;19.20;99.90;;;;;;5064538;28;20051;-73
2022/08/09 07:59:33;;;;;;;4.90;1.80;;;19.30;99.90;;;;;;5068023;28;20048;-73
2022/08/09 08:01:59;;;;;;;3.58;1.52;;;19.60;99.90;;;;;;5083004;28;20465;-72
2022/08/09 08:04:24;;;;;;;3.72;1.40;;;19.60;99.90;;;;;;5082937;28;20048;-73
2022/08/09 08:06:50;;;;;;;4.78;1.33;;;19.70;99.90;;;;;;5078281;28;20075;-74
2022/08/09 08:09:16;;;;;;;2.30;1.08;;;19.70;99.90;;;;;;5081102;28;20127;-72
2022/08/09 08:11:42;;;;;;;1.30;1.00;;;19.70;99.90;;;;;;5076852;28;20048;-72
2022/08/09 08:14:08;;;;;;;4.65;1.35;;;19.70;99.90;;;;;;5079605;28;20157;-73
2022/08/09 08:16:34;;;;;;;1.85;0.90;;;19.70;99.90;;;;;;5083047;28;20133;-74
2022/08/09 08:18:59;;;;;;;4.75;1.10;;;19.60;99.90;;;;;;5066596;28;20392;-72
2022/08/09 08:21:25;;;;;;;3.13;1.40;;;19.60;99.90;;;;;;5081023;28;20420;-73
2022/08/09 08:23:51;;;;;;;2.38;0.90;;;19.60;99.90;;;;;;5069092;28;20048;-73
2022/08/09 08:26:16;;;;;;;6.20;1.05;;;19.70;99.90;;;;;;5072021;28;20399;-73
2022/08/09 08:28:42;;;;;;;2.33;1.00;;;19.90;99.90;;;;;;5079245;28;20071;-72
2022/08/09 08:31:08;;;;;;;2.80;1.13;;;20.10;99.90;;;;;;5079908;28;20392;-72
2022/08/09 08:33:34;;;;;;;2.45;1.10;;;20.30;99.90;;;;;;5063658;28;20048;-73
2022/08/09 08:35:59;;;;;;;1.92;1.08;;;20.40;99.90;;;;;;5064410;28;20036;-74
2022/08/09 08:38:25;;;;;;;2.67;0.80;;;20.40;99.90;;;;;;5080371;28;20546;-74
2022/08/09 08:40:54;;;;;;;2.03;0.90;;;20.30;99.90;;;;;;5079452;28;20056;-73
2022/08/09 08:43:22;;;;;;;3.35;1.08;;;20.30;99.90;;;;;;5079009;28;20060;-72
2022/08/09 08:45:56;;;;;;;3.45;1.00;;;20.30;99.90;;;;;;5080876;28;20062;-74
2022/08/09 08:48:21;;;;;;;3.65;1.20;;;20.40;99.90;;;;;;5080440;28;20048;-74
2022/08/09 08:50:48;;;;;;;3.03;1.20;;;20.50;99.90;;;;;;5064373;28;20043;-74
2022/08/09 08:53:14;;;;;;;2.63;0.85;;;20.50;99.90;;;;;;5077439;28;20491;-73
2022/08/09 08:55:42;;;;;;;9.10;1.20;;;20.40;99.90;;;;;;5078406;28;20043;-74
2022/08/09 08:58:09;;;;;;;4.10;0.98;;;20.40;99.90;;;;;;5066355;28;20059;-74
2022/08/09 09:00:35;;;;;;;3.08;0.80;;;20.50;99.90;;;;;;5075345;28;20072;-73
2022/08/09 09:03:03;;;;;;;6.18;1.02;;;20.40;99.90;;;;;;5077265;28;20036;-74
2022/08/09 09:05:30;;;;;;;2.53;1.00;;;20.50;99.90;;;;;;5077175;28;20130;-74
2022/08/09 09:07:57;;;;;;;2.97;0.82;;;20.50;99.90;;;;;;5077393;28;20052;-74
2022/08/09 09:10:27;;;;;;;1.75;0.77;;;20.60;99.90;;;;;;5077073;28;20140;-74
2022/08/09 09:12:53;;;;;;;2.38;0.73;;;20.80;99.90;;;;;;5079177;28;20423;-74
2022/08/09 09:15:19;;;;;;;2.47;1.00;;;20.80;99.90;;;;;;5079725;28;20523;-74
2022/08/09 09:17:45;;;;;;;2.20;1.10;;;21.00;99.90;;;;;;5081553;28;20138;-73
2022/08/09 09:20:12;;;;;;;2.72;0.70;;;21.10;99.90;;;;;;5083188;28;20188;-74
2022/08/09 09:22:56;;;;;;;1.40;0.70;;;21.30;99.90;;;;;;5084478;28;20047;-73
2022/08/09 09:25:42;;;;;;;0.80;0.60;;;21.60;99.90;;;;;;5085310;28;20063;-74
2022/08/09 09:28:10;;;;;;;1.63;0.88;;;21.80;99.90;;;;;;5080439;28;20139;-75
2022/08/09 09:30:54;;;;;;;1.33;0.77;;;21.80;99.90;;;;;;5086969;28;20045;-73
2022/08/09 09:33:19;;;;;;;2.17;0.90;;;21.70;99.90;;;;;;5069300;28;20139;-73
2022/08/09 09:35:59;;;;;;;1.92;0.75;;;21.80;99.90;;;;;;5079670;28;20535;-73
2022/08/09 09:38:40;;;;;;;3.53;1.00;;;21.80;99.90;;;;;;5080131;28;20369;-74
2022/08/09 09:41:07;;;;;;;1.73;0.70;;;21.70;99.90;;;;;;5065432;28;20055;-74
2022/08/09 09:43:33;;;;;;;5.93;0.90;;;21.80;99.90;;;;;;5065515;28;20392;-75
2022/08/09 09:46:01;;;;;;;2.30;0.77;;;21.80;99.90;;;;;;5080219;28;20100;-75
2022/08/09 09:48:32;;;;;;;3.25;0.80;;;22.00;99.90;;;;;;5084038;28;20040;-74
2022/08/09 09:50:58;;;;;;;1.95;0.80;;;22.30;99.90;;;;;;5085509;28;20047;-74
2022/08/09 09:53:26;;;;;;;2.85;0.80;;;22.60;99.90;;;;;;5082955;28;20368;-74
2022/08/09 09:56:00;;;;;;;1.50;0.80;;;22.70;99.90;;;;;;5064005;28;20482;-74
2022/08/09 09:58:43;;;;;;;1.35;0.63;;;22.50;99.90;;;;;;5078110;28;20059;-75
2022/08/09 10:01:20;;;;;;;2.30;0.80;;;22.30;99.90;;;;;;5081538;28;20468;-74
2022/08/09 10:03:50;;;;;;;1.95;0.75;;;22.00;99.90;;;;;;5079023;28;20056;-74
2022/08/09 10:06:17;;;;;;;1.83;0.60;;;22.20;99.90;;;;;;5083030;28;20083;-73
2022/08/09 10:08:44;;;;;;;1.85;0.80;;;22.50;99.90;;;;;;5082309;28;20070;-74
2022/08/09 10:11:17;;;;;;;2.00;0.70;;;22.50;99.90;;;;;;5084031;28;20117;-75
2022/08/09 10:13:43;;;;;;;3.63;0.77;;;22.50;99.90;;;;;;5069655;28;20060;-73
2022/08/09 10:16:09;;;;;;;1.00;0.50;;;22.30;99.90;;;;;;5081932;28;20048;-73
2022/08/09 10:18:35;;;;;;;2.08;0.65;;;22.30;99.90;;;;;;5078340;28;20044;-74
2022/08/09 10:21:08;;;;;;;1.67;0.60;;;22.70;99.90;;;;;;5081802;28;20179;-75
2022/08/09 10:23:35;;;;;;;0.57;0.50;;;22.80;99.90;;;;;;5068752;28;20044;-74
2022/08/09 10:26:02;;;;;;;2.58;0.57;;;22.80;99.90;;;;;;5082907;28;20055;-74
2022/08/09 10:28:30;;;;;;;2.00;0.95;;;23.00;99.90;;;;;;5062360;28;20050;-74
2022/08/09 10:30:57;;;;;;;2.20;0.63;;;23.20;99.90;;;;;;5078078;28;20128;-74
2022/08/09 10:33:23;;;;;;;0.43;0.40;;;23.40;99.90;;;;;;5076890;28;20095;-75
2022/08/09 10:35:50;;;;;;;1.00;0.40;;;23.60;99.90;;;;;;5081178;28;20032;-74
2022/08/09 10:38:16;;;;;;;1.27;0.60;;;23.30;99.90;;;;;;5064562;28;20042;-76
2022/08/09 10:40:43;;;;;;;1.33;0.60;;;23.30;99.90;;;;;;5077494;28;20036;-75
2022/08/09 10:43:09;;;;;;;2.28;0.50;;;23.40;99.90;;;;;;5074778;28;20109;-74
2022/08/09 10:45:36;;;;;;;1.30;0.55;;;23.60;99.90;;;;;;5075080;28;20046;-74
2022/08/09 10:48:10;;;;;;;1.42;0.50;;;23.90;99.90;;;;;;5083338;28;20480;-75
2022/08/09 10:53:42;;;;;;;0.82;0.50;;;24.50;99.90;;;;;;5079399;28;20059;-75
2022/08/09 10:56:22;;;;;;;1.48;0.43;;;24.80;99.90;;;;;;5063580;28;20109;-75
2022/08/09 10:58:50;;;;;;;1.52;0.70;;;24.90;99.90;;;;;;5074295;28;20143;-75
2022/08/09 11:01:31;;;;;;;1.58;0.45;;;24.90;99.90;;;;;;5059232;28;20426;-74
2022/08/09 11:04:13;;;;;;;0.88;0.40;;;24.80;99.90;;;;;;5074363;28;20483;-74
2022/08/09 11:06:41;;;;;;;0.77;0.40;;;24.70;99.90;;;;;;5081603;28;20119;-73
2022/08/09 11:09:08;;;;;;;1.30;0.40;;;24.60;99.90;;;;;;5077876;28;20051;-74
2022/08/09 11:12:00;;;;;;;3.10;0.50;;;24.50;99.90;;;;;;5081923;28;20052;-75
2022/08/09 11:14:41;;;;;;;1.38;0.60;;;24.20;99.90;;;;;;5085852;28;20074;-73
2022/08/09 11:17:12;;;;;;;2.28;0.40;;;23.80;99.90;;;;;;5080060;28;20047;-74
2022/08/09 11:19:57;;;;;;;0.95;0.43;;;23.70;99.90;;;;;;5067333;28;21011;-75
2022/08/09 11:22:41;;;;;;;1.08;0.40;;;23.40;99.90;;;;;;5065283;28;20047;-74
2022/08/09 11:25:15;;;;;;;2.55;0.50;;;23.70;99.90;;;;;;5081297;28;20051;-75
2022/08/09 11:27:48;;;;;;;0.30;0.30;;;24.10;99.90;;;;;;5080823;28;20471;-76
2022/08/09 11:30:20;;;;;;;2.70;0.50;;;24.20;99.90;;;;;;5069215;28;20499;-76
2022/08/09 11:32:49;;;;;;;1.30;0.60;;;24.20;99.90;;;;;;5071212;28;20160;-76
2022/08/09 11:35:35;;;;;;;1.55;0.60;;;24.00;99.90;;;;;;5089221;28;20521;-76
2022/08/09 11:38:15;;;;;;;1.33;0.50;;;24.00;99.90;;;;;;5066306;28;20411;-75
2022/08/09 11:40:41;;;;;;;0.43;0.40;;;23.80;99.90;;;;;;5087559;28;20121;-75
2022/08/09 11:43:07;;;;;;;0.90;0.30;;;23.60;99.90;;;;;;5071984;28;20413;-75
2022/08/09 11:45:41;;;;;;;1.90;0.70;;;23.50;99.90;;;;;;5089042;28;20046;-75
2022/08/09 11:48:10;;;;;;;0.88;0.40;;;23.90;99.90;;;;;;5073172;28;20059;-77
2022/08/09 11:51:11;;;;;;;1.30;0.60;;;24.10;99.90;;;;;;5088507;28;20189;-77
2022/08/09 11:53:39;;;;;;;1.73;0.57;;;24.00;99.90;;;;;;4979676;28;20052;-76
2022/08/09 11:56:13;;;;;;;3.33;0.50;;;24.50;99.90;;;;;;4993838;28;20061;-76
2022/08/09 11:58:43;;;;;;;1.40;0.50;;;25.00;99.90;;;;;;4972507;28;20149;-77
2022/08/09 12:01:10;;;;;;;9.20;0.70;;;25.30;99.90;;;;;;4991560;28;20452;-75
2022/08/09 12:03:37;;;;;;;0.45;0.30;;;25.50;99.90;;;;;;4967561;28;20399;-76
2022/08/09 12:06:18;;;;;;;1.63;0.50;;;25.70;99.90;;;;;;4988060;28;20113;-73
2022/08/09 12:08:50;;;;;;;0.90;0.45;;;25.40;99.90;;;;;;4986211;28;20493;-74
2022/08/09 12:11:18;;;;;;;2.05;0.60;;;24.90;99.90;;;;;;4999700;28;20054;-74
2022/08/09 12:13:48;;;;;;;1.05;0.43;;;25.20;99.90;;;;;;4988238;28;20081;-74
2022/08/09 12:16:31;;;;;;;1.45;0.50;;;25.40;99.90;;;;;;5008473;28;20205;-75
2022/08/09 12:18:57;;;;;;;1.88;0.50;;;25.70;99.90;;;;;;4973028;28;20045;-75
2022/08/09 12:21:34;;;;;;;1.50;0.80;;;26.10;99.90;;;;;;4991439;28;20053;-75
2022/08/09 12:24:02;;;;;;;1.30;0.70;;;25.90;99.90;;;;;;4988904;28;20117;-75
2022/08/09 12:26:43;;;;;;;2.30;0.60;;;25.90;99.90;;;;;;4974123;28;20053;-74
2022/08/09 12:29:15;;;;;;;1.98;0.55;;;26.00;99.90;;;;;;5066716;28;20059;-74
2022/08/09 12:31:41;;;;;;;1.33;0.50;;;25.80;99.90;;;;;;5069272;28;20048;-74
2022/08/09 12:34:08;;;;;;;0.90;0.60;;;26.30;99.90;;;;;;5087917;28;20048;-74
2022/08/09 12:36:51;;;;;;;0.82;0.50;;;26.10;99.90;;;;;;5081425;28;20053;-75
2022/08/09 12:39:17;;;;;;;3.38;0.60;;;26.20;99.90;;;;;;5069768;28;20113;-74
2022/08/09 12:41:42;;;;;;;1.35;0.50;;;25.90;99.90;;;;;;5083012;28;20125;-74
2022/08/09 12:44:08;;;;;;;1.00;0.50;;;26.00;99.90;;;;;;5067083;28;20048;-76
2022/08/09 12:46:34;;;;;;;1.23;0.60;;;26.00;99.90;;;;;;5062681;28;20051;-74
2022/08/09 12:49:06;;;;;;;2.03;0.63;;;26.10;99.30;;;;;;5083722;28;20036;-75
2022/08/09 12:51:34;;;;;;;0.95;0.45;;;26.60;99.80;;;;;;5085802;28;20048;-75
2022/08/09 12:54:02;;;;;;;0.73;0.40;;;26.50;99.40;;;;;;5066227;28;20044;-75
2022/08/09 12:56:28;;;;;;;1.23;0.65;;;26.60;99.20;;;;;;5083025;28;20043;-75
2022/08/09 12:59:09;;;;;;;0.50;0.50;;;27.00;99.00;;;;;;5081157;28;20372;-75